createdAt,value
2019-01-23T19:27:52.010Z,8.13
2019-01-23T19:30:24.944Z,8.63
2019-01-23T19:32:54.720Z,10.10
2019-01-23T19:35:25.427Z,9.00
2019-01-23T19:37:55.810Z,8.60
2019-01-23T19:40:25.211Z,9.47
2019-01-23T19:42:59.046Z,8.00
2019-01-23T19:45:28.512Z,8.97
2019-01-23T19:47:57.881Z,8.80
2019-01-23T19:53:07.200Z,8.17
2019-01-23T19:55:38.015Z,9.03
2019-01-23T19:58:07.472Z,8.53
2019-01-23T20:00:39.218Z,8.60
2019-01-23T20:03:10.384Z,8.43
2019-01-23T20:05:40.443Z,8.73
2019-01-23T20:08:10.767Z,8.93
2019-01-23T20:10:40.166Z,8.80
2019-01-23T20:13:10.416Z,8.60
2019-01-23T20:15:39.815Z,8.83
2019-01-23T20:18:12.458Z,8.70
2019-01-23T20:23:27.971Z,9.57
2019-01-23T20:25:58.395Z,8.27
2019-01-23T20:28:29.304Z,8.17
2019-01-23T20:30:58.819Z,8.93
2019-01-23T20:33:28.726Z,8.90
2019-01-23T20:35:58.204Z,8.80
2019-01-23T20:38:28.072Z,8.63
2019-01-23T20:40:57.703Z,10.07
2019-01-23T20:43:27.822Z,8.87
2019-01-23T20:45:57.350Z,7.40
2019-01-23T20:48:26.724Z,9.07
2019-01-23T20:50:56.275Z,8.80
2019-01-23T20:53:25.908Z,8.77
2019-01-23T20:55:55.406Z,10.07
2019-01-23T20:58:25.005Z,11.17
2019-01-23T21:00:55.110Z,8.90
2019-01-23T21:03:24.721Z,8.37
2019-01-23T21:05:54.272Z,7.83
2019-01-23T21:08:24.184Z,7.97
2019-01-23T21:10:53.903Z,7.83
2019-01-23T21:13:23.483Z,8.73
2019-01-23T21:15:53.058Z,8.90
2019-01-23T21:18:22.453Z,9.67
2019-01-23T21:20:51.953Z,8.43
2019-01-23T21:23:21.384Z,8.23
2019-01-23T21:25:50.926Z,7.47
2019-01-23T21:28:20.372Z,8.30
2019-01-23T21:30:49.860Z,8.97
2019-01-23T21:33:19.361Z,8.23
2019-01-23T21:35:48.861Z,9.93
2019-01-23T21:38:18.402Z,21.67
2019-01-23T21:40:47.851Z,12.57
2019-01-23T21:43:17.772Z,9.77
2019-01-23T21:45:47.526Z,9.27
2019-01-23T21:48:21.131Z,8.60
2019-01-23T21:50:52.556Z,8.10
2019-01-23T21:53:23.373Z,9.50
2019-01-23T21:55:54.630Z,10.57
2019-01-23T21:58:24.987Z,9.80
2019-01-23T22:00:59.493Z,9.70
2019-01-23T22:03:29.495Z,10.73
2019-01-23T22:05:59.080Z,11.53
2019-01-23T22:08:28.729Z,10.23
2019-01-23T22:10:58.284Z,8.33
2019-01-23T22:13:29.389Z,6.83
2019-01-23T22:15:59.003Z,7.80
2019-01-23T22:18:28.565Z,6.90
2019-01-23T22:20:58.180Z,7.10
2019-01-23T22:23:28.299Z,6.53
2019-01-23T22:25:57.868Z,6.57
2019-01-23T22:28:27.307Z,6.70
2019-01-23T22:30:56.654Z,6.37
2019-01-23T22:33:26.079Z,6.83
2019-01-23T22:35:55.495Z,6.67
2019-01-23T22:38:24.890Z,5.70
2019-01-23T22:40:54.238Z,5.93
2019-01-23T22:43:23.635Z,5.83
2019-01-23T22:45:52.997Z,5.97
2019-01-23T22:48:22.358Z,5.53
2019-01-23T22:50:51.685Z,5.80
2019-01-23T22:53:21.051Z,6.83
2019-01-23T22:55:50.430Z,5.90
2019-01-23T22:58:19.818Z,6.07
2019-01-23T23:01:24.981Z,5.50
2019-01-23T23:03:54.551Z,5.70
2019-01-23T23:06:23.993Z,5.90
2019-01-23T23:08:53.346Z,5.00
2019-01-23T23:11:22.729Z,5.17
2019-01-23T23:13:52.168Z,4.73
2019-01-23T23:16:21.537Z,4.60
2019-01-23T23:18:50.883Z,4.67
2019-01-23T23:21:20.287Z,5.23
2019-01-23T23:23:49.619Z,4.50
2019-01-23T23:26:19.335Z,4.90
2019-01-23T23:28:48.762Z,5.23
2019-01-23T23:31:18.151Z,4.90
2019-01-23T23:33:47.526Z,5.03
2019-01-23T23:36:16.910Z,4.90
2019-01-23T23:38:46.266Z,4.97
2019-01-23T23:41:15.631Z,5.07
2019-01-23T23:43:44.979Z,4.40
2019-01-23T23:46:14.295Z,5.83
2019-01-23T23:48:43.735Z,5.20
2019-01-23T23:51:13.070Z,5.23
2019-01-23T23:53:42.446Z,5.30
2019-01-23T23:56:11.779Z,5.07
2019-01-23T23:58:41.158Z,5.37
